createdAt,value
2018-08-29T00:00:17.922Z,101482.58
2018-08-29T00:02:45.043Z,101478.66
2018-08-29T00:05:12.289Z,101477.83
2018-08-29T00:07:45.170Z,101480.48
2018-08-29T00:10:18.619Z,101477.89
2018-08-29T00:12:46.409Z,101478.33
2018-08-29T00:15:13.993Z,101475.73
2018-08-29T00:17:41.216Z,101475.36
2018-08-29T00:20:08.352Z,101481.13
2018-08-29T00:22:35.531Z,101474.11
2018-08-29T00:25:03.108Z,101470.70
2018-08-29T00:27:30.263Z,101473.84
2018-08-29T00:29:57.354Z,101476.95
2018-08-29T00:32:24.571Z,101472.61
2018-08-29T00:34:51.695Z,101467.41
2018-08-29T00:37:18.836Z,101472.28
2018-08-29T00:39:46.004Z,101467.46
2018-08-29T00:42:13.130Z,101461.33
2018-08-29T00:44:40.288Z,101462.63
2018-08-29T00:47:07.543Z,101452.98
2018-08-29T00:49:34.703Z,101453.05
2018-08-29T00:52:01.817Z,101454.31
2018-08-29T00:54:29.039Z,101459.20
2018-08-29T00:56:56.376Z,101455.70
2018-08-29T00:59:23.943Z,101452.62
2018-08-29T01:01:51.139Z,101451.36
2018-08-29T01:04:18.648Z,101453.59
2018-08-29T01:06:45.764Z,101455.39
2018-08-29T01:09:12.991Z,101445.73
2018-08-29T01:11:40.130Z,101444.01
2018-08-29T01:14:07.247Z,101451.48
2018-08-29T01:16:34.524Z,101448.49
2018-08-29T01:19:01.640Z,101449.38
2018-08-29T01:21:28.900Z,101445.89
2018-08-29T01:23:56.164Z,101447.23
2018-08-29T01:26:23.283Z,101438.48
2018-08-29T01:28:50.412Z,101436.30
2018-08-29T01:31:17.643Z,101436.35
2018-08-29T01:33:44.747Z,101440.78
2018-08-29T01:36:11.834Z,101441.23
2018-08-29T01:38:38.990Z,101439.99
2018-08-29T01:41:06.160Z,101434.75
2018-08-29T01:43:33.323Z,101435.66
2018-08-29T01:46:00.595Z,101437.87
2018-08-29T01:48:27.763Z,101438.30
2018-08-29T01:50:54.909Z,101434.78
2018-08-29T01:53:22.092Z,101440.50
2018-08-29T01:55:49.203Z,101434.41
2018-08-29T01:58:16.297Z,101439.61
2018-08-29T02:00:43.470Z,101437.93
2018-08-29T02:03:10.557Z,101440.59
2018-08-29T02:05:37.905Z,101438.87
2018-08-29T02:08:05.288Z,101439.75
2018-08-29T02:10:32.416Z,101436.25
2018-08-29T02:12:59.609Z,101432.38
2018-08-29T02:15:26.864Z,101434.59
2018-08-29T02:17:53.977Z,101422.73
2018-08-29T02:20:21.097Z,101422.39
2018-08-29T02:22:48.558Z,101422.38
2018-08-29T02:25:15.704Z,101417.58
2018-08-29T02:27:42.824Z,101414.99
2018-08-29T02:30:10.109Z,101416.28
2018-08-29T02:32:37.303Z,101421.98
2018-08-29T02:35:04.698Z,101411.55
2018-08-29T02:37:32.003Z,101411.14
2018-08-29T02:39:59.132Z,101409.36
2018-08-29T02:42:32.049Z,101407.59
2018-08-29T02:44:59.140Z,101410.25
2018-08-29T02:47:26.275Z,101409.27
2018-08-29T02:49:53.426Z,101402.78
2018-08-29T02:52:20.635Z,101402.81
2018-08-29T02:54:47.884Z,101403.26
2018-08-29T02:57:15.144Z,101396.67
2018-08-29T02:59:42.263Z,101398.42
2018-08-29T03:02:09.381Z,101386.17
2018-08-29T03:04:36.614Z,101384.84
2018-08-29T03:07:03.794Z,101392.72
2018-08-29T03:09:30.932Z,101388.41
2018-08-29T03:11:58.163Z,101391.48
2018-08-29T03:14:25.257Z,101395.92
2018-08-29T03:16:52.391Z,101398.55
2018-08-29T03:19:19.677Z,101395.48
2018-08-29T03:21:46.835Z,101394.18
2018-08-29T03:24:14.053Z,101397.33
2018-08-29T03:26:41.215Z,101390.73
2018-08-29T03:29:08.308Z,101391.66
2018-08-29T03:31:35.484Z,101387.70
2018-08-29T03:34:02.743Z,101390.33
2018-08-29T03:36:29.862Z,101387.33
2018-08-29T03:38:56.970Z,101383.84
2018-08-29T03:41:24.295Z,101382.13
2018-08-29T03:43:51.428Z,101382.13
2018-08-29T03:46:18.588Z,101380.45
2018-08-29T03:48:45.753Z,101377.81
2018-08-29T03:51:12.862Z,101378.67
2018-08-29T03:53:40.066Z,101377.38
2018-08-29T03:56:07.327Z,101376.52
2018-08-29T03:58:34.549Z,101368.64
2018-08-29T04:01:01.661Z,101369.97
2018-08-29T04:03:31.375Z,101363.00
2018-08-29T04:05:58.503Z,101368.27
2018-08-29T04:08:25.653Z,101367.77
2018-08-29T04:10:52.910Z,101362.15
2018-08-29T04:13:20.098Z,101368.27
2018-08-29T04:15:47.242Z,101357.77
2018-08-29T04:18:14.649Z,101359.52
2018-08-29T04:20:41.845Z,101357.33
2018-08-29T04:23:09.012Z,101355.59
2018-08-29T04:25:36.211Z,101350.75
2018-08-29T04:28:03.375Z,101351.21
2018-08-29T04:30:30.551Z,101355.13
2018-08-29T04:32:57.785Z,101355.98
2018-08-29T04:35:25.009Z,101349.75
2018-08-29T04:37:52.117Z,101354.04
2018-08-29T04:40:19.277Z,101363.65
2018-08-29T04:42:46.615Z,101358.75
2018-08-29T04:45:13.846Z,101359.05
2018-08-29T04:47:41.056Z,101351.18
2018-08-29T04:50:08.192Z,101358.04
2018-08-29T04:52:35.287Z,101357.50
2018-08-29T04:55:02.437Z,101353.55
2018-08-29T04:57:29.702Z,101357.79
2018-08-29T04:59:56.876Z,101353.31
2018-08-29T05:04:39.416Z,101341.71
2018-08-29T05:07:06.541Z,101343.86
2018-08-29T05:09:33.725Z,101345.05
2018-08-29T05:12:00.999Z,101346.23
2018-08-29T05:14:28.117Z,101346.95
2018-08-29T05:16:55.245Z,101343.80
2018-08-29T05:19:22.440Z,101352.37
2018-08-29T05:21:49.620Z,101350.52
2018-08-29T05:24:16.797Z,101345.50
2018-08-29T05:26:43.976Z,101344.42
2018-08-29T05:29:11.130Z,101342.91
2018-08-29T05:31:38.228Z,101346.14
2018-08-29T05:34:05.554Z,101346.32
2018-08-29T05:36:32.728Z,101339.38
2018-08-29T05:38:59.897Z,101338.19
2018-08-29T05:41:27.125Z,101330.02
2018-08-29T05:43:55.264Z,101331.87
2018-08-29T05:46:22.472Z,101335.11
2018-08-29T05:48:49.687Z,101341.73
2018-08-29T05:51:16.813Z,101339.29
2018-08-29T05:53:43.963Z,101341.55
2018-08-29T05:56:11.137Z,101330.60
2018-08-29T05:58:38.310Z,101326.71
2018-08-29T06:01:05.828Z,101332.86
2018-08-29T06:03:33.006Z,101326.88
2018-08-29T06:06:00.151Z,101323.75
2018-08-29T06:08:27.260Z,101318.58
2018-08-29T06:10:54.867Z,101322.13
2018-08-29T06:13:22.244Z,101320.78
2018-08-29T06:15:49.368Z,101322.32
2018-08-29T06:18:16.548Z,101326.77
2018-08-29T06:20:43.651Z,101323.66
2018-08-29T06:23:10.834Z,101320.64
2018-08-29T06:25:38.040Z,101331.48
2018-08-29T06:28:05.184Z,101329.82
2018-08-29T06:30:32.316Z,101323.55
2018-08-29T06:32:59.557Z,101325.30
2018-08-29T06:35:26.873Z,101323.70
2018-08-29T06:37:54.018Z,101316.41
2018-08-29T06:40:21.171Z,101324.92
2018-08-29T06:42:48.301Z,101329.16
2018-08-29T06:45:15.407Z,101334.87
2018-08-29T06:47:42.655Z,101330.14
2018-08-29T06:50:09.896Z,101325.91
2018-08-29T06:52:37.016Z,101327.67
2018-08-29T06:55:04.236Z,101327.45
2018-08-29T06:57:32.168Z,101327.70
2018-08-29T07:00:00.336Z,101330.57
2018-08-29T07:02:27.628Z,101323.66
2018-08-29T07:04:54.725Z,101325.91
2018-08-29T07:07:21.847Z,101327.84
2018-08-29T07:09:49.071Z,101328.33
2018-08-29T07:12:16.239Z,101323.11
2018-08-29T07:14:43.413Z,101312.81
2018-08-29T07:17:10.560Z,101313.28
2018-08-29T07:19:37.714Z,101320.92
2018-08-29T07:22:04.895Z,101323.23
2018-08-29T07:24:32.145Z,101331.20
2018-08-29T07:27:00.871Z,101334.40
2018-08-29T07:29:28.146Z,101337.04
2018-08-29T07:31:55.233Z,101337.97
2018-08-29T07:34:22.378Z,101326.13
2018-08-29T07:36:49.594Z,101322.80
2018-08-29T07:39:16.939Z,101316.25
2018-08-29T07:41:44.065Z,101319.64
2018-08-29T07:44:11.192Z,101314.41
2018-08-29T07:46:38.366Z,101310.32
2018-08-29T07:49:05.605Z,101305.80
2018-08-29T07:51:32.772Z,101299.89
2018-08-29T07:53:59.963Z,101303.92
2018-08-29T07:56:27.077Z,101301.05
2018-08-29T07:58:55.159Z,101298.47
2018-08-29T08:01:22.529Z,101304.05
2018-08-29T08:03:49.604Z,101296.78
2018-08-29T08:06:16.728Z,101289.66
2018-08-29T08:08:49.941Z,101295.67
2018-08-29T08:11:18.075Z,101288.70
2018-08-29T08:13:45.535Z,101290.73
2018-08-29T08:16:13.013Z,101292.60
2018-08-29T08:18:40.256Z,101289.94
2018-08-29T08:21:08.431Z,101279.79
2018-08-29T08:23:35.653Z,101269.52
2018-08-29T08:26:03.207Z,101270.56
2018-08-29T08:28:30.495Z,101274.30
2018-08-29T08:30:58.060Z,101273.25
2018-08-29T08:33:25.477Z,101275.35
2018-08-29T08:35:53.263Z,101275.36
2018-08-29T08:38:20.921Z,101269.69
2018-08-29T08:40:48.683Z,101266.98
2018-08-29T08:43:16.426Z,101270.11
2018-08-29T08:45:43.649Z,101267.30
2018-08-29T08:48:10.939Z,101277.04
2018-08-29T08:50:38.289Z,101274.00
2018-08-29T08:53:06.877Z,101270.50
2018-08-29T08:55:34.012Z,101274.28
2018-08-29T08:58:01.210Z,101270.48
2018-08-29T09:00:28.382Z,101273.23
2018-08-29T09:02:55.832Z,101269.28
2018-08-29T09:05:23.033Z,101271.49
2018-08-29T09:07:50.166Z,101267.30
2018-08-29T09:10:17.269Z,101269.80
2018-08-29T09:12:44.394Z,101268.67
2018-08-29T09:15:11.649Z,101265.83
2018-08-29T09:17:38.815Z,101261.02
2018-08-29T09:20:05.948Z,101260.30
2018-08-29T09:22:33.125Z,101248.92
2018-08-29T09:25:00.240Z,101246.63
2018-08-29T09:27:27.431Z,101243.66
2018-08-29T09:29:54.685Z,101243.39
2018-08-29T09:32:21.812Z,101243.25
2018-08-29T09:34:48.959Z,101240.48
2018-08-29T09:37:16.184Z,101230.71
2018-08-29T09:39:43.462Z,101231.06
2018-08-29T09:42:10.614Z,101221.45
2018-08-29T09:44:37.792Z,101219.59
2018-08-29T09:47:05.674Z,101222.58
2018-08-29T09:49:32.774Z,101218.98
2018-08-29T09:52:00.124Z,101213.89
2018-08-29T09:54:27.337Z,101219.13
2018-08-29T09:56:54.505Z,101216.68
2018-08-29T09:59:22.683Z,101218.27
2018-08-29T10:01:56.116Z,101214.23
2018-08-29T10:04:23.596Z,101204.55
2018-08-29T10:06:50.756Z,101204.64
2018-08-29T10:09:17.877Z,101188.47
2018-08-29T10:11:45.124Z,101191.03
2018-08-29T10:14:12.294Z,101190.50
2018-08-29T10:16:39.587Z,101181.30
2018-08-29T10:19:06.843Z,101169.13
2018-08-29T10:21:33.981Z,101171.59
2018-08-29T10:24:01.172Z,101163.61
2018-08-29T10:26:28.331Z,101163.35
2018-08-29T10:28:55.565Z,101158.89
2018-08-29T10:31:22.764Z,101163.50
2018-08-29T10:33:49.922Z,101156.48
2018-08-29T10:36:17.181Z,101152.19
2018-08-29T10:38:46.354Z,101150.01
2018-08-29T10:41:13.721Z,101154.59
2018-08-29T10:43:40.899Z,101145.01
2018-08-29T10:46:08.024Z,101138.07
2018-08-29T10:48:35.188Z,101137.11
2018-08-29T10:51:02.297Z,101140.72
2018-08-29T10:53:30.459Z,101136.74
2018-08-29T10:55:57.676Z,101132.89
2018-08-29T10:58:24.776Z,101122.23
2018-08-29T11:00:52.367Z,101120.22
2018-08-29T11:03:19.529Z,101119.22
2018-08-29T11:05:46.727Z,101112.98
2018-08-29T11:08:13.887Z,101106.12
2018-08-29T11:10:41.084Z,101090.93
2018-08-29T11:13:08.284Z,101088.66
2018-08-29T11:15:35.475Z,101093.50
2018-08-29T11:18:02.861Z,101083.85
2018-08-29T11:20:30.136Z,101087.05
2018-08-29T11:22:57.249Z,101086.67
2018-08-29T11:25:24.396Z,101078.97
2018-08-29T11:27:51.579Z,101066.94
2018-08-29T11:30:18.804Z,101057.28
2018-08-29T11:32:46.224Z,101057.80
2018-08-29T11:35:13.355Z,101055.45
2018-08-29T11:37:40.485Z,101054.19
2018-08-29T11:40:07.746Z,101056.17
2018-08-29T11:42:35.040Z,101049.09
2018-08-29T11:45:02.267Z,101031.77
2018-08-29T11:47:29.449Z,101023.67
2018-08-29T11:49:56.546Z,101017.75
2018-08-29T11:52:23.671Z,101032.17
2018-08-29T11:54:50.959Z,101036.87
2018-08-29T11:57:18.129Z,101030.20
2018-08-29T11:59:45.245Z,101038.88
2018-08-29T12:02:12.452Z,101034.92
2018-08-29T12:04:39.519Z,101019.59
2018-08-29T12:07:06.701Z,101014.13
2018-08-29T12:09:34.055Z,101010.03
2018-08-29T12:12:01.130Z,101009.24
2018-08-29T12:14:28.269Z,101001.17
2018-08-29T12:16:55.429Z,101003.41
2018-08-29T12:19:22.773Z,101006.58
2018-08-29T12:21:50.052Z,100998.91
2018-08-29T12:24:17.235Z,100992.83
2018-08-29T12:26:45.472Z,100995.17
2018-08-29T12:29:12.584Z,100991.89
2018-08-29T12:31:39.845Z,100993.55
2018-08-29T12:34:06.987Z,100995.30
2018-08-29T12:36:34.144Z,100995.63
2018-08-29T12:39:01.376Z,100999.05
2018-08-29T12:41:28.934Z,100987.61
2018-08-29T12:43:56.233Z,100978.26
2018-08-29T12:46:23.452Z,100973.48
2018-08-29T12:48:51.147Z,100971.50
2018-08-29T12:51:18.277Z,100974.88
2018-08-29T12:53:45.458Z,100968.28
2018-08-29T12:56:12.770Z,100961.89
2018-08-29T12:58:40.280Z,100962.75
2018-08-29T13:01:07.489Z,100958.52
2018-08-29T13:03:34.768Z,100965.70
2018-08-29T13:06:01.943Z,100963.55
2018-08-29T13:08:29.179Z,100955.30
2018-08-29T13:10:56.389Z,100949.11
2018-08-29T13:13:23.517Z,100941.70
2018-08-29T13:15:50.671Z,100935.55
2018-08-29T13:18:17.785Z,100930.23
2018-08-29T13:20:45.503Z,100926.05
2018-08-29T13:23:12.739Z,100924.75
2018-08-29T13:25:40.828Z,100906.72
2018-08-29T13:28:08.098Z,100911.28
2018-08-29T13:30:35.375Z,100903.67
2018-08-29T13:33:02.551Z,100898.27
2018-08-29T13:35:29.872Z,100896.33
2018-08-29T13:37:57.032Z,100900.30
2018-08-29T13:40:24.182Z,100890.28
2018-08-29T13:42:51.305Z,100895.89
2018-08-29T13:45:18.536Z,100884.73
2018-08-29T13:47:45.738Z,100880.61
2018-08-29T13:50:12.885Z,100880.73
2018-08-29T13:52:40.106Z,100877.27
2018-08-29T13:55:07.261Z,100888.00
2018-08-29T13:57:34.480Z,100881.64
2018-08-29T14:00:01.711Z,100880.50
2018-08-29T14:02:28.923Z,100880.41
2018-08-29T14:04:56.019Z,100872.44
2018-08-29T14:07:23.198Z,100869.52
2018-08-29T14:09:50.399Z,100865.46
2018-08-29T14:12:17.574Z,100865.38
2018-08-29T14:14:44.756Z,100864.30
2018-08-29T14:17:11.875Z,100868.66
2018-08-29T14:19:38.996Z,100855.33
2018-08-29T14:22:06.245Z,100856.00
2018-08-29T14:24:33.434Z,100856.76
2018-08-29T14:27:00.653Z,100851.28
2018-08-29T14:29:27.818Z,100852.25
2018-08-29T14:31:54.952Z,100861.22
2018-08-29T14:34:22.157Z,100856.77
2018-08-29T14:36:49.419Z,100845.00
2018-08-29T14:39:16.544Z,100845.49
2018-08-29T14:41:43.662Z,100847.93
2018-08-29T14:44:10.796Z,100847.89
2018-08-29T14:46:37.998Z,100848.73
2018-08-29T14:49:05.200Z,100840.41
2018-08-29T14:51:32.388Z,100833.16
2018-08-29T14:53:59.509Z,100832.16
2018-08-29T14:56:26.632Z,100831.72
2018-08-29T14:58:53.860Z,100834.92
2018-08-29T15:01:32.617Z,100835.09
2018-08-29T15:04:26.332Z,100838.92
2018-08-29T15:06:53.402Z,100831.36
2018-08-29T15:09:21.231Z,100826.86
2018-08-29T15:11:48.754Z,100827.47
2018-08-29T15:14:16.278Z,100833.61
2018-08-29T15:16:44.272Z,100821.05
2018-08-29T15:19:11.560Z,100823.61
2018-08-29T15:21:38.738Z,100818.03
2018-08-29T15:24:05.981Z,100808.88
2018-08-29T15:26:33.281Z,100809.79
2018-08-29T15:29:00.455Z,100804.47
2018-08-29T15:31:27.501Z,100811.95
2018-08-29T15:33:55.545Z,100808.08
2018-08-29T15:36:22.767Z,100805.19
2018-08-29T15:38:49.992Z,100803.34
2018-08-29T15:41:17.184Z,100801.89
2018-08-29T15:43:44.302Z,100798.42
2018-08-29T15:46:11.526Z,100800.31
2018-08-29T15:48:38.886Z,100799.91
2018-08-29T15:51:05.969Z,100796.70
2018-08-29T15:53:33.115Z,100790.57
2018-08-29T15:56:00.276Z,100787.31
2018-08-29T15:58:27.486Z,100791.50
2018-08-29T16:00:55.053Z,100788.70
2018-08-29T16:03:22.236Z,100780.61
2018-08-29T16:05:49.364Z,100772.15
2018-08-29T16:08:16.576Z,100772.81
2018-08-29T16:10:43.809Z,100765.16
2018-08-29T16:13:10.971Z,100768.54
2018-08-29T16:15:38.107Z,100763.44
2018-08-29T16:18:05.407Z,100765.78
2018-08-29T16:20:32.545Z,100762.49
2018-08-29T16:25:33.714Z,100760.49
2018-08-29T16:28:01.090Z,100758.42
2018-08-29T16:30:28.684Z,100757.41
2018-08-29T16:32:56.817Z,100750.66
2018-08-29T16:35:25.005Z,100751.81
2018-08-29T16:37:52.246Z,100752.97
2018-08-29T16:40:19.895Z,100760.10
2018-08-29T16:42:47.466Z,100755.75
2018-08-29T16:45:18.402Z,100755.48
2018-08-29T16:47:46.418Z,100753.22
2018-08-29T16:50:14.022Z,100752.43
2018-08-29T16:52:41.728Z,100751.27
2018-08-29T16:55:08.891Z,100749.20
2018-08-29T16:57:35.991Z,100743.94
2018-08-29T17:00:03.241Z,100747.52
2018-08-29T17:02:30.467Z,100745.23
2018-08-29T17:04:57.669Z,100739.66
2018-08-29T17:07:24.938Z,100743.11
2018-08-29T17:09:52.673Z,100745.67
2018-08-29T17:12:21.684Z,100735.89
2018-08-29T17:14:49.000Z,100741.00
2018-08-29T17:17:17.100Z,100740.16
2018-08-29T17:19:44.253Z,100743.38
2018-08-29T17:22:11.520Z,100739.53
2018-08-29T17:24:38.891Z,100728.44
2018-08-29T17:27:08.452Z,100730.18
2018-08-29T17:29:35.756Z,100743.52
2018-08-29T17:32:03.171Z,100735.71
2018-08-29T17:34:30.291Z,100738.78
2018-08-29T17:36:57.522Z,100741.77
2018-08-29T17:39:24.787Z,100736.52
2018-08-29T17:41:52.362Z,100739.19
2018-08-29T17:44:19.569Z,100740.53
2018-08-29T17:46:46.789Z,100731.46
2018-08-29T17:49:13.935Z,100735.50
2018-08-29T17:51:41.148Z,100733.87
2018-08-29T17:54:08.347Z,100733.98
2018-08-29T17:56:35.524Z,100737.64
2018-08-29T17:59:02.631Z,100738.31
2018-08-29T18:01:29.876Z,100745.67
2018-08-29T18:03:57.069Z,100744.42
2018-08-29T18:06:24.207Z,100746.17
2018-08-29T18:08:51.829Z,100748.57
2018-08-29T18:11:19.676Z,100754.69
2018-08-29T18:13:47.013Z,100767.05
2018-08-29T18:16:14.383Z,100766.61
2018-08-29T18:18:41.585Z,100775.50
2018-08-29T18:21:09.865Z,100772.30
2018-08-29T18:23:37.650Z,100784.57
2018-08-29T18:26:05.065Z,100787.50
2018-08-29T18:28:32.508Z,100791.29
2018-08-29T18:30:59.843Z,100787.70
2018-08-29T18:33:26.915Z,100785.83
2018-08-29T18:35:54.097Z,100784.69
2018-08-29T18:38:21.357Z,100786.27
2018-08-29T18:40:48.589Z,100783.44
2018-08-29T18:43:15.854Z,100775.45
2018-08-29T18:45:42.952Z,100784.56
2018-08-29T18:48:10.065Z,100791.18
2018-08-29T18:50:37.269Z,100788.84
2018-08-29T18:53:04.847Z,100785.05
2018-08-29T18:55:31.956Z,100782.66
2018-08-29T18:57:59.063Z,100783.81
2018-08-29T19:00:26.380Z,100786.66
2018-08-29T19:02:53.637Z,100781.62
2018-08-29T19:05:20.938Z,100777.23
2018-08-29T19:07:48.214Z,100784.39
2018-08-29T19:10:15.437Z,100786.95
2018-08-29T19:12:42.628Z,100782.94
2018-08-29T19:15:09.904Z,100788.66
2018-08-29T19:17:37.144Z,100787.77
2018-08-29T19:20:04.351Z,100784.62
2018-08-29T19:22:31.612Z,100784.70
2018-08-29T19:24:58.855Z,100783.74
2018-08-29T19:27:26.179Z,100784.47
2018-08-29T19:29:53.554Z,100777.06
2018-08-29T19:32:20.675Z,100777.80
2018-08-29T19:34:47.923Z,100786.02
2018-08-29T19:37:15.180Z,100784.57
2018-08-29T19:39:42.418Z,100781.41
2018-08-29T19:42:09.612Z,100777.91
2018-08-29T19:44:36.784Z,100778.47
2018-08-29T19:47:03.936Z,100777.35
2018-08-29T19:49:31.071Z,100776.57
2018-08-29T19:52:02.408Z,100770.98
2018-08-29T19:54:29.762Z,100766.02
2018-08-29T19:56:56.875Z,100765.03
2018-08-29T19:59:24.054Z,100754.44
2018-08-29T20:01:51.163Z,100752.53
2018-08-29T20:04:18.352Z,100755.30
2018-08-29T20:06:45.593Z,100755.97
2018-08-29T20:09:12.898Z,100756.06
2018-08-29T20:11:40.152Z,100758.28
2018-08-29T20:14:07.686Z,100752.08
2018-08-29T20:16:34.995Z,100750.17
2018-08-29T20:19:02.172Z,100752.27
2018-08-29T20:21:29.334Z,100752.10
2018-08-29T20:23:56.467Z,100751.65
2018-08-29T20:26:24.175Z,100747.98
2018-08-29T20:28:52.401Z,100744.72
2018-08-29T20:31:19.581Z,100747.14
2018-08-29T20:33:47.771Z,100743.48
2018-08-29T20:36:15.096Z,100731.61
2018-08-29T20:38:42.232Z,100724.73
2018-08-29T20:41:09.452Z,100720.91
2018-08-29T20:43:36.750Z,100720.44
2018-08-29T20:46:03.951Z,100717.58
2018-08-29T20:48:31.071Z,100714.04
2018-08-29T20:50:58.338Z,100715.28
2018-08-29T20:53:25.564Z,100717.16
2018-08-29T20:55:53.847Z,100719.23
2018-08-29T20:58:21.207Z,100715.19
2018-08-29T21:00:49.477Z,100719.10
2018-08-29T21:03:16.628Z,100722.95
2018-08-29T21:05:43.907Z,100714.70
2018-08-29T21:08:11.274Z,100719.25
2018-08-29T21:10:38.459Z,100715.27
2018-08-29T21:13:05.642Z,100724.34
2018-08-29T21:15:32.791Z,100724.63
2018-08-29T21:18:00.247Z,100717.85
2018-08-29T21:20:27.481Z,100723.29
2018-08-29T21:22:55.645Z,100717.37
2018-08-29T21:25:22.808Z,100718.54
2018-08-29T21:28:01.547Z,100715.20
2018-08-29T21:30:40.306Z,100719.52
2018-08-29T21:36:23.806Z,100720.09
2018-08-29T21:38:50.905Z,100719.20
2018-08-29T21:41:18.192Z,100721.03
2018-08-29T21:44:05.796Z,100715.97
2018-08-29T21:46:45.889Z,100713.61
2018-08-29T21:51:32.867Z,100707.02
2018-08-29T21:54:24.907Z,100711.31
2018-08-29T21:57:00.535Z,100713.41
2018-08-29T21:59:42.147Z,100713.97
2018-08-29T22:02:21.747Z,100706.27
2018-08-29T22:04:59.343Z,100708.16
2018-08-29T22:07:26.576Z,100697.76
2018-08-29T22:09:53.689Z,100696.71
2018-08-29T22:12:20.841Z,100686.16
2018-08-29T22:14:48.260Z,100683.29
2018-08-29T22:17:15.465Z,100680.91
2018-08-29T22:19:42.584Z,100674.23
2018-08-29T22:22:09.755Z,100671.64
2018-08-29T22:24:36.927Z,100675.08
2018-08-29T22:27:06.210Z,100675.00
2018-08-29T22:29:33.387Z,100680.13
2018-08-29T22:32:00.528Z,100675.09
2018-08-29T22:34:27.635Z,100678.50
2018-08-29T22:36:54.918Z,100675.06
2018-08-29T22:39:22.233Z,100679.66
2018-08-29T22:41:49.380Z,100679.03
2018-08-29T22:44:16.529Z,100679.33
2018-08-29T22:46:43.636Z,100684.27
2018-08-29T22:49:11.378Z,100678.77
2018-08-29T22:51:38.628Z,100675.80
2018-08-29T22:54:05.756Z,100673.47
2018-08-29T22:56:32.868Z,100669.55
2018-08-29T22:59:00.027Z,100675.66
2018-08-29T23:01:27.332Z,100670.63
2018-08-29T23:03:54.876Z,100668.91
2018-08-29T23:06:22.691Z,100664.30
2018-08-29T23:08:49.800Z,100668.50
2018-08-29T23:11:16.948Z,100661.44
2018-08-29T23:13:44.169Z,100662.30
2018-08-29T23:16:11.400Z,100663.25
2018-08-29T23:18:38.503Z,100661.31
2018-08-29T23:21:05.745Z,100666.93
2018-08-29T23:23:32.884Z,100664.44
2018-08-29T23:26:00.045Z,100656.11
2018-08-29T23:28:27.311Z,100655.93
2018-08-29T23:30:54.447Z,100662.12
2018-08-29T23:33:21.592Z,100663.78
2018-08-29T23:35:48.749Z,100669.09
2018-08-29T23:38:15.987Z,100668.26
2018-08-29T23:40:43.444Z,100666.81
2018-08-29T23:43:10.624Z,100671.84
2018-08-29T23:45:37.727Z,100667.00
2018-08-29T23:48:05.301Z,100663.63
2018-08-29T23:50:32.614Z,100661.88
2018-08-29T23:52:59.823Z,100657.34
2018-08-29T23:55:26.961Z,100649.89
2018-08-29T23:57:54.147Z,100656.61
